createdAt,value
2023-02-12T00:00:04.081Z,78
2023-02-12T00:30:25.737Z,79
2023-02-12T01:00:28.466Z,79
2023-02-12T01:30:20.402Z,79
2023-02-12T02:00:13.351Z,80
2023-02-12T02:30:25.871Z,79
2023-02-12T03:00:18.225Z,80
2023-02-12T03:30:21.231Z,80
2023-02-12T04:00:21.826Z,80
2023-02-12T05:00:20.733Z,81
2023-02-12T05:30:24.334Z,80
2023-02-12T06:00:28.558Z,81
2023-02-12T06:30:19.429Z,80
2023-02-12T07:00:19.784Z,80
2023-02-12T07:30:02.825Z,81
2023-02-12T08:00:24.729Z,80
2023-02-12T08:30:16.155Z,79
2023-02-12T08:59:59.459Z,78
2023-02-12T09:30:07.368Z,79
2023-02-12T10:00:27.540Z,77
2023-02-12T10:30:12.238Z,76
2023-02-12T11:00:02.667Z,74
2023-02-12T11:30:08.967Z,74
2023-02-12T12:00:29.163Z,74
2023-02-12T12:30:12.234Z,74
2023-02-12T13:00:04.598Z,73
2023-02-12T13:30:25.521Z,74
2023-02-12T14:00:04.797Z,73
2023-02-12T14:30:06.101Z,67
2023-02-12T15:00:18.186Z,55
2023-02-12T15:30:24.411Z,56
2023-02-12T16:00:02.334Z,63
2023-02-12T16:30:14.188Z,71
2023-02-12T17:00:26.493Z,74
2023-02-12T17:30:07.264Z,77
2023-02-12T18:00:21.723Z,77
2023-02-12T19:00:02.500Z,81
2023-02-12T19:30:23.702Z,81
2023-02-12T20:00:07.022Z,80
2023-02-12T20:30:18.165Z,84
2023-02-12T21:00:08.988Z,81
2023-02-12T21:30:13.025Z,82
2023-02-12T22:00:04.332Z,82
2023-02-12T22:30:29.793Z,83
2023-02-12T23:30:19.996Z,82
